Terminal Aerodrome Forecast
Issued by NWS

Home | Current Version | Previous Version | Text Only | Print | Product List | Glossary Off
Versions: 1 2 3 4 5 6 7 8 9 10 11 12 13 14

000
FTUS43 KGRB 040400 AAA
TAFMTW
TAF AMD
KMTW 040430Z 0405/0424 29011KT P6SM BKN035
     FM040700 29010G19KT P6SM SCT025 SCT035
     FM041600 29016G24KT P6SM SCT030=

USA.gov is the U.S. government's official web portal to all federal, state and local government web resources and services.